Time;durP1;ratioP1;P1;durP2;ratioP2;P2;SDS_P1;SDS_P2;PMS_P1;PMS_P2;Temp;Humidity;BMP_temperature;BMP_pressure;BME280_temperature;BME280_humidity;BME280_pressure;Samples;Min_cycle;Max_cycle;Signal;HPM_P1;HPM_P2
2024/04/24 00:01:28;;;;;;;22.45;11.52;;;;;;;8.71;45.46;99683.09;5235514;26;94609;-77
2024/04/24 00:03:54;;;;;;;17.33;11.50;;;;;;;8.73;45.49;99686.50;5202247;27;94689;-77
2024/04/24 00:06:21;;;;;;;22.67;12.20;;;;;;;8.39;45.45;99632.78;5227377;26;94679;-77
2024/04/24 00:08:47;;;;;;;19.70;12.57;;;;;;;8.72;45.48;99690.88;5233987;26;94630;-77
2024/04/24 00:11:17;;;;;;;20.27;11.60;;;;;;;8.77;45.34;99690.72;5193353;27;94603;-77
2024/04/24 00:13:42;;;;;;;26.02;12.20;;;;;;;8.74;45.37;99681.19;5230185;27;94688;-77
2024/04/24 00:16:08;;;;;;;19.33;12.13;;;;;;;8.75;45.46;99674.19;5169715;27;94041;-77
2024/04/24 00:18:33;;;;;;;17.63;12.05;;;;;;;8.71;45.62;99664.75;5228929;27;97593;-77
2024/04/24 00:20:59;;;;;;;19.77;12.20;;;;;;;8.63;45.55;99643.25;5205957;27;97771;-77
2024/04/24 00:23:24;;;;;;;23.73;12.55;;;;;;;8.77;46.05;99672.38;5232936;26;94698;-77
2024/04/24 00:25:50;;;;;;;20.40;12.25;;;;;;;8.74;46.01;99672.50;5220470;27;94519;-77
2024/04/24 00:28:15;;;;;;;20.92;12.38;;;;;;;8.72;46.24;99666.47;5205917;27;97543;-77
2024/04/24 00:30:41;;;;;;;21.85;12.25;;;;;;;8.76;45.97;99670.69;5234945;26;94735;-77
2024/04/24 00:33:06;;;;;;;24.90;12.50;;;;;;;8.68;46.26;99662.25;5234293;27;94624;-78
2024/04/24 00:35:32;;;;;;;21.02;12.77;;;;;;;8.63;46.45;99649.34;5233719;27;94781;-77
2024/04/24 00:37:57;;;;;;;22.30;13.45;;;;;;;8.68;46.50;99657.88;5234301;26;94915;-77
2024/04/24 00:40:23;;;;;;;20.38;12.73;;;;;;;8.70;46.54;99656.06;5233842;26;94778;-77
2024/04/24 00:42:48;;;;;;;21.08;11.90;;;;;;;8.54;46.59;99637.44;5193235;27;94712;-77
2024/04/24 00:45:14;;;;;;;22.55;12.80;;;;;;;8.62;46.40;99645.03;5204804;27;95225;-77
2024/04/24 00:47:40;;;;;;;19.25;12.35;;;;;;;8.64;46.42;99639.72;5233541;26;95326;-77
2024/04/24 00:50:09;;;;;;;26.35;15.45;;;;;;;8.37;46.55;99617.09;5234879;27;94730;-77
2024/04/24 00:52:35;;;;;;;19.45;11.90;;;;;;;8.46;47.12;99631.63;5205732;27;95338;-77
2024/04/24 00:55:00;;;;;;;19.13;12.43;;;;;;;8.39;46.83;99630.16;5233841;26;94653;-77
2024/04/24 00:57:25;;;;;;;21.70;12.95;;;;;;;8.35;47.01;99647.69;5235969;26;94646;-77
2024/04/24 00:59:51;;;;;;;24.15;14.05;;;;;;;8.40;46.58;99642.31;5233089;26;94735;-77
2024/04/24 01:02:16;;;;;;;20.27;12.68;;;;;;;8.39;46.67;99641.47;5201537;27;94664;-78
2024/04/24 01:04:42;;;;;;;20.45;13.05;;;;;;;8.25;46.83;99619.31;5234244;27;94677;-77
2024/04/24 01:07:07;;;;;;;19.15;11.73;;;;;;;8.08;47.24;99618.13;5235559;27;94660;-77
2024/04/24 01:09:33;;;;;;;22.92;13.23;;;;;;;8.11;46.93;99617.16;5199456;27;96243;-77
2024/04/24 01:11:58;;;;;;;21.80;12.30;;;;;;;8.25;47.26;99641.06;5229460;27;94659;-77
2024/04/24 01:14:24;;;;;;;22.33;13.73;;;;;;;7.99;47.13;99621.06;5232260;27;94753;-77
2024/04/24 01:16:49;;;;;;;24.23;13.07;;;;;;;8.04;47.14;99613.09;5203533;27;96904;-77
2024/04/24 01:19:34;;;;;;;23.85;13.23;;;;;;;8.04;47.55;99637.44;5233617;27;94626;-77
2024/04/24 01:22:11;;;;;;;23.38;12.10;;;;;;;7.94;47.65;99607.28;5230984;27;94698;-77
2024/04/24 01:24:41;;;;;;;27.05;14.43;;;;;;;8.13;47.44;99633.66;5232333;26;93643;-77
2024/04/24 01:27:07;;;;;;;23.02;13.23;;;;;;;7.98;47.45;99618.53;5206538;27;94742;-78
2024/04/24 01:29:32;;;;;;;22.77;13.43;;;;;;;8.05;47.42;99626.09;5168452;27;97213;-77
2024/04/24 01:31:58;;;;;;;20.70;12.73;;;;;;;8.03;47.39;99624.41;5233122;27;94597;-77
2024/04/24 01:34:23;;;;;;;24.98;13.88;;;;;;;8.02;47.48;99618.34;5235216;27;94640;-77
2024/04/24 01:36:48;;;;;;;24.48;14.07;;;;;;;7.99;47.28;99615.84;5204904;26;97557;-77
2024/04/24 01:39:14;;;;;;;21.00;12.65;;;;;;;8.19;47.28;99632.59;5203381;27;97737;-77
2024/04/24 01:41:39;;;;;;;23.05;12.77;;;;;;;7.95;47.35;99616.88;5200967;27;94612;-77
2024/04/24 01:44:05;;;;;;;24.65;13.20;;;;;;;8.04;47.48;99613.09;5233342;27;94710;-78
2024/04/24 01:46:30;;;;;;;21.25;12.95;;;;;;;8.04;47.40;99616.53;5233896;27;94504;-77
2024/04/24 01:48:56;;;;;;;31.15;13.45;;;;;;;8.05;47.43;99604.31;5233220;27;94619;-77
2024/04/24 01:51:21;;;;;;;20.80;13.20;;;;;;;8.09;47.19;99608.56;5233265;27;94678;-76
2024/04/24 01:53:47;;;;;;;19.80;12.52;;;;;;;8.14;47.28;99606.59;5177217;27;94691;-78
2024/04/24 01:56:12;;;;;;;22.15;13.60;;;;;;;7.97;47.19;99588.03;5200644;27;97365;-78
2024/04/24 01:58:38;;;;;;;20.65;12.93;;;;;;;8.10;47.56;99599.78;5172327;27;96651;-78
2024/04/24 02:01:03;;;;;;;23.25;13.32;;;;;;;7.84;47.47;99551.91;5228617;27;94585;-77
2024/04/24 02:03:29;;;;;;;21.05;13.18;;;;;;;7.83;47.32;99552.81;5177336;27;94692;-78
2024/04/24 02:05:54;;;;;;;21.30;13.57;;;;;;;8.04;47.37;99582.56;5200404;27;96988;-76
2024/04/24 02:08:20;;;;;;;23.80;13.25;;;;;;;7.96;47.63;99578.50;5234442;27;94718;-77
2024/04/24 02:10:45;;;;;;;25.55;13.15;;;;;;;7.89;47.43;99575.25;5200828;27;94652;-77
2024/04/24 02:13:11;;;;;;;24.65;14.13;;;;;;;7.86;47.26;99567.53;5176225;27;94606;-77
2024/04/24 02:15:36;;;;;;;19.38;12.80;;;;;;;7.85;47.66;99587.59;5222719;26;94550;-77
2024/04/24 02:18:04;;;;;;;18.48;11.68;;;;;;;7.91;47.17;99570.81;5191596;27;97510;-77
2024/04/24 02:20:30;;;;;;;21.13;13.27;;;;;;;7.78;47.22;99533.81;5195602;27;94701;-77
2024/04/24 02:22:56;;;;;;;21.40;13.27;;;;;;;7.71;47.67;99537.56;5201535;27;94857;-77
2024/04/24 02:25:34;;;;;;;22.52;13.45;;;;;;;7.63;47.57;99526.53;5231834;27;97437;-77
2024/04/24 02:28:05;;;;;;;23.98;12.80;;;;;;;7.92;47.52;99557.72;5234857;27;94641;-77
2024/04/24 02:30:31;;;;;;;25.83;14.98;;;;;;;7.80;47.76;99526.78;5228779;27;94748;-77
2024/04/24 02:32:57;;;;;;;24.13;13.48;;;;;;;8.00;47.68;99548.72;5233283;27;94741;-77
2024/04/24 02:35:22;;;;;;;23.55;12.70;;;;;;;8.06;48.04;99559.00;5202680;27;94259;-77
2024/04/24 02:37:47;;;;;;;19.48;12.57;;;;;;;8.04;48.00;99551.19;5232946;27;94638;-77
2024/04/24 02:40:13;;;;;;;29.63;15.05;;;;;;;8.01;47.82;99551.31;5228469;27;94669;-77
2024/04/24 02:42:38;;;;;;;23.63;13.52;;;;;;;7.93;47.94;99538.50;5233288;27;94745;-77
2024/04/24 02:45:04;;;;;;;22.50;12.98;;;;;;;7.79;47.78;99516.38;5231965;27;94598;-77
2024/04/24 02:47:30;;;;;;;22.63;13.15;;;;;;;7.91;48.11;99542.06;5204178;27;94731;-77
2024/04/24 02:49:55;;;;;;;21.30;13.50;;;;;;;7.93;48.13;99542.88;5231867;27;94731;-77
2024/04/24 02:52:21;;;;;;;23.10;13.43;;;;;;;7.86;48.25;99541.41;5205041;27;93733;-77
2024/04/24 02:54:46;;;;;;;26.80;15.48;;;;;;;7.82;48.45;99543.25;5202932;27;97255;-77
2024/04/24 02:57:12;;;;;;;26.48;13.50;;;;;;;7.79;48.44;99540.75;5204259;27;94715;-77
2024/04/24 02:59:37;;;;;;;28.35;14.13;;;;;;;7.74;48.35;99520.91;5231672;27;94705;-77
2024/04/24 03:02:03;;;;;;;22.67;14.10;;;;;;;7.82;48.37;99534.56;5232692;27;94602;-77
2024/04/24 03:04:28;;;;;;;27.98;14.30;;;;;;;7.76;48.10;99530.41;5175802;27;97583;-77
2024/04/24 03:06:54;;;;;;;22.90;13.10;;;;;;;7.65;48.79;99528.19;5232939;27;94769;-77
2024/04/24 03:09:19;;;;;;;25.88;14.73;;;;;;;7.67;48.48;99520.28;5210554;27;96061;-77
2024/04/24 03:11:45;;;;;;;25.08;14.63;;;;;;;7.80;48.69;99529.41;5197619;27;94688;-77
2024/04/24 03:14:10;;;;;;;22.85;13.50;;;;;;;7.78;48.70;99518.16;5194073;27;96384;-77
2024/04/24 03:16:36;;;;;;;27.27;13.48;;;;;;;7.80;48.43;99518.09;5197403;27;97808;-77
2024/04/24 03:19:01;;;;;;;26.23;13.88;;;;;;;7.54;48.86;99480.69;5199383;27;94662;-76
2024/04/24 03:21:27;;;;;;;25.10;13.63;;;;;;;7.72;48.84;99503.53;5202846;27;94617;-77
2024/04/24 03:23:52;;;;;;;23.98;13.55;;;;;;;7.63;49.11;99492.56;5194325;27;98046;-77
2024/04/24 03:26:18;;;;;;;29.83;14.85;;;;;;;7.61;49.23;99487.38;5196232;27;98190;-78
2024/04/24 03:28:43;;;;;;;26.80;14.07;;;;;;;7.56;49.31;99483.22;5231660;27;94629;-77
2024/04/24 03:31:09;;;;;;;27.85;15.98;;;;;;;7.67;49.43;99496.78;5232107;27;94797;-76
2024/04/24 03:33:34;;;;;;;27.98;15.38;;;;;;;7.54;49.69;99472.84;5231328;27;95269;-77
2024/04/24 03:36:00;;;;;;;27.98;14.95;;;;;;;7.75;49.61;99513.03;5232012;27;94788;-77
2024/04/24 03:38:25;;;;;;;27.77;15.18;;;;;;;7.48;49.82;99473.06;5231050;27;94684;-77
2024/04/24 03:40:51;;;;;;;28.42;14.82;;;;;;;7.53;49.80;99468.50;5229675;27;94629;-77
2024/04/24 03:43:17;;;;;;;25.90;14.93;;;;;;;7.71;49.97;99493.16;5230934;27;94656;-77
2024/04/24 03:45:43;;;;;;;23.38;14.32;;;;;;;7.52;49.93;99466.81;5203278;26;97662;-77
2024/04/24 03:48:08;;;;;;;26.33;15.00;;;;;;;7.58;50.09;99477.06;5205211;27;94608;-78
2024/04/24 03:50:34;;;;;;;26.67;16.70;;;;;;;7.63;50.15;99484.75;5176187;27;94583;-77
2024/04/24 03:52:59;;;;;;;24.90;14.50;;;;;;;7.48;50.14;99458.25;5233032;27;97179;-77
2024/04/24 03:55:25;;;;;;;28.13;14.80;;;;;;;7.65;49.89;99490.75;5179214;27;95814;-77
2024/04/24 03:57:50;;;;;;;22.65;13.82;;;;;;;7.39;49.74;99435.06;5177999;27;94593;-77
2024/04/24 04:00:16;;;;;;;27.08;15.00;;;;;;;7.64;49.91;99484.66;5236554;26;94802;-77
2024/04/24 04:02:42;;;;;;;26.00;14.80;;;;;;;7.35;49.86;99435.22;5201741;27;97170;-77
2024/04/24 04:05:07;;;;;;;26.08;13.95;;;;;;;7.66;49.73;99480.25;5233935;26;94580;-77
2024/04/24 04:07:33;;;;;;;28.65;15.77;;;;;;;7.74;49.86;99480.00;5203251;27;94703;-78
2024/04/24 04:09:58;;;;;;;25.77;15.60;;;;;;;7.66;50.01;99482.00;5206490;27;94675;-76
2024/04/24 04:12:24;;;;;;;29.70;15.23;;;;;;;7.51;50.00;99444.22;5227401;27;94606;-73
2024/04/24 04:14:49;;;;;;;26.83;15.65;;;;;;;7.81;50.15;99485.84;5224022;27;94703;-73
2024/04/24 04:17:15;;;;;;;32.83;15.25;;;;;;;7.88;50.07;99487.31;5204433;26;94653;-73
2024/04/24 04:19:40;;;;;;;25.08;16.73;;;;;;;7.92;49.49;99478.47;5226260;27;94648;-72
2024/04/24 04:22:06;;;;;;;23.33;14.93;;;;;;;7.85;49.23;99445.63;5205392;27;94668;-73
2024/04/24 04:24:31;;;;;;;26.65;15.90;;;;;;;8.10;49.30;99477.78;5228708;27;94595;-73
2024/04/24 04:26:57;;;;;;;26.17;14.75;;;;;;;8.21;49.00;99471.31;5223608;27;94657;-73
2024/04/24 04:29:22;;;;;;;27.90;15.25;;;;;;;8.22;48.68;99444.25;5230581;26;94684;-73
2024/04/24 04:31:48;;;;;;;25.75;14.48;;;;;;;8.29;48.35;99448.31;5200648;27;97030;-76
2024/04/24 04:34:13;;;;;;;24.70;15.13;;;;;;;8.54;48.42;99483.09;5203092;27;97418;-73
2024/04/24 04:36:39;;;;;;;20.90;14.98;;;;;;;8.59;47.75;99482.94;5231450;27;94572;-74
2024/04/24 04:39:04;;;;;;;27.75;14.32;;;;;;;8.68;47.20;99476.50;5203184;27;94599;-73
2024/04/24 04:41:30;;;;;;;28.17;14.75;;;;;;;8.65;46.95;99448.69;5232543;27;94592;-73
2024/04/24 04:43:56;;;;;;;21.15;13.52;;;;;;;8.61;46.42;99473.28;5232546;26;94702;-73
2024/04/24 04:46:22;;;;;;;21.95;12.75;;;;;;;8.69;46.38;99465.09;5193196;26;94472;-72
2024/04/24 04:48:48;;;;;;;21.10;13.57;;;;;;;8.71;46.43;99479.84;5227685;26;94703;-73
2024/04/24 04:51:13;;;;;;;23.88;13.30;;;;;;;8.60;46.95;99455.84;5230191;26;94715;-76
2024/04/24 04:53:39;;;;;;;26.42;15.90;;;;;;;8.89;47.08;99473.00;5228752;27;94664;-73
2024/04/24 04:56:05;;;;;;;23.70;13.05;;;;;;;8.89;46.46;99427.66;5176409;27;94710;-73
2024/04/24 04:58:30;;;;;;;20.48;14.25;;;;;;;9.45;45.85;99475.06;5227493;26;94677;-73
2024/04/24 05:00:56;;;;;;;22.83;13.50;;;;;;;9.55;45.28;99436.19;5234028;27;94720;-73
2024/04/24 05:03:21;;;;;;;20.98;12.73;;;;;;;9.80;45.06;99442.97;5224043;26;94618;-72
2024/04/24 05:05:47;;;;;;;21.35;13.43;;;;;;;9.94;44.80;99435.31;5218346;27;94625;-72
2024/04/24 05:08:12;;;;;;;22.20;13.80;;;;;;;10.02;43.53;99432.38;5236575;26;94661;-74
2024/04/24 05:10:38;;;;;;;22.85;12.98;;;;;;;10.30;43.17;99451.19;5236413;27;95437;-73
2024/04/24 05:13:03;;;;;;;20.33;13.27;;;;;;;10.30;43.06;99413.63;5235979;26;95189;-76
2024/04/24 05:15:29;;;;;;;24.75;14.27;;;;;;;10.60;43.35;99454.13;5204266;26;94709;-78
2024/04/24 05:17:55;;;;;;;23.00;15.52;;;;;;;10.51;43.82;99430.94;5215872;27;94664;-77
2024/04/24 05:20:20;;;;;;;29.90;15.65;;;;;;;10.49;44.12;99438.03;5234583;27;94545;-77
2024/04/24 05:22:51;;;;;;;23.80;14.50;;;;;;;10.31;44.51;99410.91;5234835;26;94637;-77
2024/04/24 05:25:17;;;;;;;28.73;14.85;;;;;;;10.44;44.17;99432.16;5235989;26;94664;-77
2024/04/24 05:30:27;;;;;;;32.95;15.65;;;;;;;10.32;44.02;99406.50;5232562;27;94695;-77
2024/04/24 05:32:53;;;;;;;24.15;15.48;;;;;;;10.46;43.69;99401.44;5233774;27;94660;-77
2024/04/24 05:35:18;;;;;;;26.65;14.55;;;;;;;10.50;43.60;99379.41;5223476;26;94893;-77
2024/04/24 05:37:44;;;;;;;28.05;15.35;;;;;;;10.90;43.09;99390.53;5233791;27;94659;-77
2024/04/24 05:40:09;;;;;;;27.42;15.50;;;;;;;11.47;42.41;99429.69;5235192;26;94604;-77
2024/04/24 05:42:35;;;;;;;26.38;14.07;;;;;;;11.46;41.96;99425.34;5250739;26;95222;-77
2024/04/24 05:45:00;;;;;;;28.20;15.38;;;;;;;11.45;42.13;99410.53;5220826;27;94624;-73
2024/04/24 05:47:26;;;;;;;21.63;13.82;;;;;;;12.03;40.92;99431.13;5233290;27;94600;-73
2024/04/24 05:49:52;;;;;;;22.52;12.68;;;;;;;12.47;40.05;99425.19;5232868;26;94586;-73
2024/04/24 05:52:18;;;;;;;20.63;13.10;;;;;;;12.47;40.32;99419.94;5234823;26;94727;-73
2024/04/24 05:54:43;;;;;;;24.67;12.95;;;;;;;12.73;39.67;99426.38;5233170;26;95551;-73
2024/04/24 05:57:09;;;;;;;24.35;13.40;;;;;;;12.95;39.11;99414.63;5235334;26;94718;-74
2024/04/24 05:59:35;;;;;;;21.90;14.27;;;;;;;13.25;38.79;99401.41;5233816;27;94725;-73
2024/04/24 06:02:01;;;;;;;23.38;14.75;;;;;;;13.47;37.95;99385.19;5233495;26;94788;-73
2024/04/24 06:04:26;;;;;;;25.08;13.70;;;;;;;13.88;37.76;99409.03;5232513;27;94465;-72
2024/04/24 06:06:52;;;;;;;29.75;15.32;;;;;;;13.71;37.72;99401.31;5203613;27;94620;-72
2024/04/24 06:09:17;;;;;;;19.95;13.05;;;;;;;13.38;37.48;99376.06;5229968;26;94644;-75
2024/04/24 06:11:43;;;;;;;23.48;13.27;;;;;;;13.27;37.89;99399.56;5228431;26;94692;-74
2024/04/24 06:14:08;;;;;;;21.25;13.63;;;;;;;12.83;38.06;99369.63;5201933;27;95287;-74
2024/04/24 06:16:34;;;;;;;21.88;13.27;;;;;;;13.55;37.60;99404.00;5230877;26;94656;-75
2024/04/24 06:19:00;;;;;;;23.63;14.40;;;;;;;14.03;37.21;99401.94;5225910;26;94613;-73
2024/04/24 06:21:25;;;;;;;25.98;15.10;;;;;;;14.51;36.55;99415.59;5230735;27;94736;-73
2024/04/24 06:23:51;;;;;;;22.17;13.52;;;;;;;14.56;36.33;99410.06;5223897;26;94823;-72
2024/04/24 06:26:16;;;;;;;20.38;13.30;;;;;;;14.39;36.28;99413.75;5187977;27;94512;-73
2024/04/24 06:28:42;;;;;;;16.90;12.73;;;;;;;14.29;36.05;99386.25;5224148;26;94808;-72
2024/04/24 06:31:07;;;;;;;22.10;13.07;;;;;;;13.70;36.19;99382.00;5219911;26;94698;-73
2024/04/24 06:33:33;;;;;;;18.02;13.00;;;;;;;13.77;37.00;99401.78;5222594;26;94844;-74
2024/04/24 06:36:03;;;;;;;22.38;12.93;;;;;;;14.17;36.60;99407.19;5230575;27;94597;-73
2024/04/24 06:38:28;;;;;;;19.85;13.48;;;;;;;14.81;35.91;99415.44;5230191;27;95548;-73
2024/04/24 06:40:54;;;;;;;19.63;13.30;;;;;;;15.36;35.26;99401.16;5232075;27;95111;-73
2024/04/24 06:43:20;;;;;;;21.30;13.55;;;;;;;15.37;34.51;99397.56;5231671;27;94680;-73
2024/04/24 06:45:45;;;;;;;22.00;13.90;;;;;;;16.07;34.09;99389.16;5232715;26;94616;-74
2024/04/24 06:48:11;;;;;;;21.20;13.63;;;;;;;16.81;32.57;99375.84;5230045;27;95128;-73
2024/04/24 06:50:36;;;;;;;24.55;14.00;;;;;;;17.86;30.85;99358.97;5222620;27;94850;-73
2024/04/24 06:53:02;;;;;;;19.95;13.80;;;;;;;18.83;29.86;99366.22;5221311;27;94682;-73
2024/04/24 06:55:27;;;;;;;22.15;13.10;;;;;;;19.16;29.88;99384.66;5201964;27;94482;-73
2024/04/24 06:57:53;;;;;;;21.13;13.68;;;;;;;19.53;29.28;99367.38;5229683;27;95161;-72
2024/04/24 07:00:18;;;;;;;19.15;12.85;;;;;;;19.79;28.13;99342.00;5192409;27;95334;-74
2024/04/24 07:02:43;;;;;;;20.67;13.18;;;;;;;19.99;28.91;99342.09;5223403;26;94608;-77
2024/04/24 07:05:09;;;;;;;22.95;13.77;;;;;;;20.73;27.81;99365.63;5230407;26;95238;-75
2024/04/24 07:07:35;;;;;;;21.23;14.80;;;;;;;21.37;27.17;99343.69;5227718;26;94873;-75
2024/04/24 07:10:01;;;;;;;21.83;13.43;;;;;;;20.93;26.93;99361.16;5229518;26;94805;-74
2024/04/24 07:12:26;;;;;;;22.35;13.30;;;;;;;20.70;27.22;99350.75;5226288;26;96399;-78
2024/04/24 07:14:52;;;;;;;23.27;13.52;;;;;;;20.10;27.96;99363.25;5220972;26;94543;-73
2024/04/24 07:17:17;;;;;;;18.63;13.35;;;;;;;19.88;28.20;99354.53;5220343;27;94796;-73
2024/04/24 07:19:43;;;;;;;24.70;14.98;;;;;;;19.60;28.57;99364.03;5225012;27;94753;-73
2024/04/24 07:22:09;;;;;;;18.42;13.43;;;;;;;19.35;28.19;99359.16;5232935;26;95151;-74
2024/04/24 07:24:34;;;;;;;17.77;12.88;;;;;;;19.28;28.54;99336.69;5200337;27;94328;-74
2024/04/24 07:27:00;;;;;;;20.73;13.27;;;;;;;19.33;28.98;99321.19;5215037;27;94819;-74
2024/04/24 07:29:25;;;;;;;18.58;12.90;;;;;;;19.52;28.59;99333.72;5236056;27;94712;-73
2024/04/24 07:31:51;;;;;;;20.40;12.77;;;;;;;19.78;27.63;99366.97;5226982;26;94756;-73
2024/04/24 07:34:16;;;;;;;16.27;12.25;;;;;;;19.85;27.89;99346.81;5234305;26;94637;-73
2024/04/24 07:36:42;;;;;;;20.88;13.27;;;;;;;20.30;27.50;99346.38;5199870;26;94680;-75
2024/04/24 07:39:07;;;;;;;20.98;13.82;;;;;;;20.20;28.10;99360.66;5227122;26;97674;-73
2024/04/24 07:41:33;;;;;;;17.52;13.35;;;;;;;19.97;28.29;99352.88;5197365;27;95208;-74
2024/04/24 07:43:58;;;;;;;19.20;13.30;;;;;;;19.38;28.03;99301.19;5222536;26;93726;-73
2024/04/24 07:46:27;;;;;;;19.00;13.07;;;;;;;20.00;28.64;99349.09;5226096;26;94609;-73
2024/04/24 07:48:53;;;;;;;19.15;13.10;;;;;;;20.43;27.56;99315.94;5200866;27;94852;-73
2024/04/24 07:51:18;;;;;;;18.52;12.50;;;;;;;20.47;27.02;99318.16;5221006;26;94628;-73
2024/04/24 07:53:44;;;;;;;19.52;13.43;;;;;;;20.83;27.10;99336.28;5231576;26;94690;-72
2024/04/24 07:56:09;;;;;;;18.05;13.60;;;;;;;21.12;26.94;99328.25;5159353;26;97420;-73
2024/04/24 07:58:35;;;;;;;21.65;13.40;;;;;;;21.75;27.04;99320.50;5233406;26;94960;-74
2024/04/24 08:01:00;;;;;;;22.52;12.10;;;;;;;22.51;25.86;99312.16;5214377;26;94612;-74
2024/04/24 08:03:26;;;;;;;18.65;12.57;;;;;;;23.23;25.66;99320.94;5218895;26;94679;-73
2024/04/24 08:05:51;;;;;;;19.15;13.13;;;;;;;23.60;24.68;99306.44;5225937;26;94376;-75
2024/04/24 08:08:17;;;;;;;29.70;13.45;;;;;;;24.01;24.28;99322.69;5229985;26;97300;-73
2024/04/24 08:10:42;;;;;;;16.65;13.00;;;;;;;24.17;24.17;99301.31;5218130;26;94708;-73
2024/04/24 08:13:09;;;;;;;23.05;13.48;;;;;;;26.17;22.52;99298.00;5227299;26;94742;-73
2024/04/24 08:15:35;;;;;;;17.75;11.93;;;;;;;27.60;20.94;99281.13;5229034;26;94893;-74
2024/04/24 08:18:00;;;;;;;16.73;11.80;;;;;;;27.93;19.60;99295.06;5227133;26;98632;-73
2024/04/24 08:20:26;;;;;;;14.88;12.27;;;;;;;28.40;19.94;99299.94;5232931;27;94778;-75
2024/04/24 08:22:51;;;;;;;16.48;12.73;;;;;;;27.87;20.20;99309.31;5234074;27;94546;-73
2024/04/24 08:25:17;;;;;;;18.35;12.52;;;;;;;28.45;20.38;99304.81;5232871;26;94605;-76
2024/04/24 08:27:42;;;;;;;17.38;12.10;;;;;;;27.96;19.89;99297.38;5232945;27;94872;-73
2024/04/24 08:30:09;;;;;;;15.32;11.48;;;;;;;28.65;19.73;99297.72;5229633;26;95608;-74
2024/04/24 08:32:35;;;;;;;14.35;11.68;;;;;;;30.81;17.53;99298.44;5230349;26;94737;-74
2024/04/24 08:35:00;;;;;;;16.45;12.55;;;;;;;32.16;16.51;99278.94;5232916;26;94636;-73
2024/04/24 08:37:27;;;;;;;21.80;12.27;;;;;;;32.84;16.25;99289.13;5232009;26;94664;-74
2024/04/24 08:39:52;;;;;;;14.20;12.60;;;;;;;33.00;16.24;99287.78;5229976;26;94569;-73
2024/04/24 08:42:18;;;;;;;16.08;12.32;;;;;;;31.53;17.07;99296.72;5224528;26;96800;-73
2024/04/24 08:44:44;;;;;;;14.50;11.35;;;;;;;29.91;17.63;99289.66;5230705;26;94918;-75
2024/04/24 08:47:10;;;;;;;15.82;11.65;;;;;;;30.49;17.24;99308.16;5226516;26;94849;-74
2024/04/24 08:49:37;;;;;;;22.27;11.27;;;;;;;30.90;17.84;99296.34;5226560;26;95963;-75
2024/04/24 08:52:04;;;;;;;17.90;11.63;;;;;;;30.56;17.13;99294.63;5228554;26;94785;-74
2024/04/24 08:54:32;;;;;;;15.75;11.05;;;;;;;29.20;18.57;99287.16;5226496;27;94732;-75
2024/04/24 08:57:00;;;;;;;15.60;11.68;;;;;;;27.72;19.59;99269.69;5224825;26;94829;-73
2024/04/24 08:59:30;;;;;;;12.43;11.13;;;;;;;27.68;19.55;99256.75;5226476;26;94625;-73
2024/04/24 09:02:06;;;;;;;17.05;12.07;;;;;;;27.24;20.68;99282.72;5228411;26;94836;-73
2024/04/24 09:04:34;;;;;;;15.05;12.15;;;;;;;25.87;21.31;99259.38;5228754;26;94728;-74
2024/04/24 09:06:59;;;;;;;16.33;12.43;;;;;;;25.56;22.12;99248.56;5230756;27;95000;-73
2024/04/24 09:09:25;;;;;;;15.02;12.52;;;;;;;25.54;22.11;99286.38;5230652;26;102373;-76
2024/04/24 09:11:53;;;;;;;15.65;13.85;;;;;;;24.93;22.00;99280.59;5231742;26;94652;-73
2024/04/24 09:14:20;;;;;;;16.65;12.00;;;;;;;25.01;21.99;99275.19;5233661;26;94828;-74
2024/04/24 09:16:46;;;;;;;17.35;12.32;;;;;;;24.55;22.30;99277.59;5195344;27;97631;-74
2024/04/24 09:19:11;;;;;;;14.68;12.52;;;;;;;23.60;23.43;99263.59;5229447;26;96988;-73
2024/04/24 09:21:37;;;;;;;14.20;12.00;;;;;;;23.43;23.87;99283.25;5225208;26;94790;-73
2024/04/24 09:24:02;;;;;;;15.27;12.50;;;;;;;23.05;23.95;99272.00;5225927;26;94099;-73
2024/04/24 09:26:28;;;;;;;26.23;12.38;;;;;;;23.09;23.86;99262.63;5231623;26;94886;-75
2024/04/24 09:28:54;;;;;;;19.85;11.55;;;;;;;23.10;24.32;99282.25;5226661;26;95166;-73
2024/04/24 09:31:19;;;;;;;18.17;11.98;;;;;;;23.07;24.85;99264.66;5228779;26;94699;-76
2024/04/24 09:33:46;;;;;;;18.70;11.60;;;;;;;22.79;24.57;99270.09;5226973;26;94782;-75
2024/04/24 09:36:12;;;;;;;13.98;11.35;;;;;;;22.63;24.74;99247.75;5217270;27;95514;-73
2024/04/24 09:38:40;;;;;;;17.20;12.35;;;;;;;23.21;24.91;99265.88;5222522;27;94847;-73
2024/04/24 09:41:09;;;;;;;16.83;12.25;;;;;;;23.14;24.10;99248.78;5223602;27;94812;-73
2024/04/24 09:43:34;;;;;;;17.30;11.77;;;;;;;22.94;24.59;99266.88;5226326;26;94620;-76
2024/04/24 09:46:00;;;;;;;16.13;12.30;;;;;;;21.58;25.83;99255.34;5229169;27;94680;-73
2024/04/24 09:48:25;;;;;;;19.98;12.55;;;;;;;21.44;26.09;99263.88;5229876;26;94719;-75
2024/04/24 09:50:51;;;;;;;20.25;11.98;;;;;;;21.43;25.88;99254.16;5225311;26;94741;-73
2024/04/24 09:53:20;;;;;;;12.68;10.90;;;;;;;21.49;25.72;99240.22;5226307;26;94733;-73
2024/04/24 09:56:01;;;;;;;17.13;11.02;;;;;;;20.44;25.10;99246.50;5229033;26;94851;-73
2024/04/24 09:58:27;;;;;;;15.40;11.57;;;;;;;20.91;25.44;99257.25;5227692;27;94760;-73
2024/04/24 10:00:53;;;;;;;12.38;10.23;;;;;;;21.18;26.13;99239.66;5230411;27;94735;-72
2024/04/24 10:03:19;;;;;;;15.38;10.95;;;;;;;21.68;26.41;99245.47;5231305;26;94621;-72
2024/04/24 10:05:46;;;;;;;13.40;10.75;;;;;;;21.43;26.49;99255.00;5227138;26;94640;-73
2024/04/24 10:08:15;;;;;;;13.43;10.35;;;;;;;21.08;26.31;99231.66;5227081;26;94732;-73
2024/04/24 10:10:47;;;;;;;14.77;11.27;;;;;;;20.61;26.23;99210.31;5230879;27;95789;-73
2024/04/24 10:13:13;;;;;;;14.35;10.63;;;;;;;20.02;26.75;99225.47;5225836;27;94725;-73
2024/04/24 10:16:03;;;;;;;12.35;10.65;;;;;;;19.08;27.82;99259.47;5225517;27;94641;-72
2024/04/24 10:18:28;;;;;;;12.13;10.00;;;;;;;19.00;28.17;99246.00;5215430;27;94712;-72
2024/04/24 10:20:55;;;;;;;18.60;10.38;;;;;;;19.27;28.32;99242.75;5226716;27;94621;-76
2024/04/24 10:23:21;;;;;;;11.43;10.23;;;;;;;19.13;28.04;99214.69;5196730;27;96418;-81
2024/04/24 10:25:50;;;;;;;12.13;9.45;;;;;;;19.20;27.55;99236.28;5229906;27;95118;-76
2024/04/24 10:28:17;;;;;;;13.77;10.85;;;;;;;19.16;28.14;99225.03;5229905;27;94863;-77
2024/04/24 10:30:43;;;;;;;13.93;10.23;;;;;;;18.56;29.01;99226.66;5222788;26;94525;-76
2024/04/24 10:33:09;;;;;;;12.68;9.45;;;;;;;18.97;28.14;99214.34;5229330;26;94106;-76
2024/04/24 10:35:35;;;;;;;13.63;9.93;;;;;;;19.10;29.40;99230.06;5253277;26;94677;-76
2024/04/24 10:38:05;;;;;;;15.15;9.85;;;;;;;19.23;28.28;99244.84;5229902;26;94816;-78
2024/04/24 10:40:31;;;;;;;17.25;10.18;;;;;;;19.14;28.25;99227.03;5201632;27;95664;-76
2024/04/24 10:43:07;;;;;;;13.00;8.75;;;;;;;18.51;28.40;99216.41;5228162;26;94767;-77
2024/04/24 10:45:34;;;;;;;15.75;9.68;;;;;;;18.34;28.45;99240.88;5220850;27;94798;-76
2024/04/24 10:48:01;;;;;;;11.80;8.65;;;;;;;18.22;29.55;99220.66;5226556;26;95982;-76
2024/04/24 10:50:27;;;;;;;13.70;9.32;;;;;;;18.35;29.72;99242.56;5225233;26;94653;-76
2024/04/24 10:52:54;;;;;;;17.30;9.40;;;;;;;18.43;29.24;99249.91;5196487;27;96209;-76
2024/04/24 10:55:19;;;;;;;12.05;9.85;;;;;;;18.43;29.79;99252.56;5195179;26;97486;-76
2024/04/24 10:57:55;;;;;;;11.27;8.32;;;;;;;18.27;29.58;99214.00;5226583;27;94912;-77
2024/04/24 11:00:21;;;;;;;12.50;8.07;;;;;;;18.21;30.55;99211.88;5195739;27;94645;-76
2024/04/24 11:02:48;;;;;;;11.98;8.68;;;;;;;17.98;30.20;99242.13;5223475;27;94802;-76
2024/04/24 11:05:17;;;;;;;10.63;8.23;;;;;;;18.39;29.37;99235.22;5230532;27;94755;-76
2024/04/24 11:07:42;;;;;;;12.80;7.82;;;;;;;18.42;29.65;99211.03;5219448;26;94806;-78
2024/04/24 11:10:09;;;;;;;12.23;8.63;;;;;;;18.62;28.80;99244.75;5229481;26;94769;-77
2024/04/24 11:12:38;;;;;;;17.85;8.65;;;;;;;18.07;28.68;99220.97;5225989;27;94794;-76
2024/04/24 11:15:19;;;;;;;16.20;9.48;;;;;;;18.24;29.52;99230.19;5228926;26;94569;-78
2024/04/24 11:17:45;;;;;;;12.23;8.77;;;;;;;18.10;29.46;99238.47;5187332;27;95028;-76
2024/04/24 11:20:10;;;;;;;10.70;8.10;;;;;;;17.87;29.61;99229.72;5223825;27;94623;-76